sensor_id;sensor_type;location;lat;lon;timestamp;P1;durP1;ratioP1;P2;durP2;ratioP2
18082;SDS011;9168;51.194;6.840;2024-02-14T00:00:22;5.80;;;2.10;;
18082;SDS011;9168;51.194;6.840;2024-02-14T00:02:50;2.95;;;1.65;;
18082;SDS011;9168;51.194;6.840;2024-02-14T00:05:18;5.07;;;1.98;;
18082;SDS011;9168;51.194;6.840;2024-02-14T00:07:45;10.13;;;2.17;;
18082;SDS011;9168;51.194;6.840;2024-02-14T00:10:12;10.95;;;2.00;;
18082;SDS011;9168;51.194;6.840;2024-02-14T00:12:39;3.50;;;1.85;;
18082;SDS011;9168;51.194;6.840;2024-02-14T00:15:06;6.10;;;1.98;;
18082;SDS011;9168;51.194;6.840;2024-02-14T00:17:35;8.65;;;2.20;;
18082;SDS011;9168;51.194;6.840;2024-02-14T00:20:02;5.13;;;1.67;;
18082;SDS011;9168;51.194;6.840;2024-02-14T00:22:29;8.20;;;2.03;;
18082;SDS011;9168;51.194;6.840;2024-02-14T00:24:56;12.38;;;1.90;;
18082;SDS011;9168;51.194;6.840;2024-02-14T00:27:23;4.78;;;1.70;;
18082;SDS011;9168;51.194;6.840;2024-02-14T00:29:51;4.75;;;1.65;;
18082;SDS011;9168;51.194;6.840;2024-02-14T00:32:19;4.32;;;1.50;;
18082;SDS011;9168;51.194;6.840;2024-02-14T00:34:47;8.85;;;1.60;;
18082;SDS011;9168;51.194;6.840;2024-02-14T00:37:15;3.78;;;1.20;;
18082;SDS011;9168;51.194;6.840;2024-02-14T00:39:41;2.72;;;1.15;;
18082;SDS011;9168;51.194;6.840;2024-02-14T00:42:08;4.32;;;1.50;;
18082;SDS011;9168;51.194;6.840;2024-02-14T00:44:36;4.75;;;1.77;;
18082;SDS011;9168;51.194;6.840;2024-02-14T00:47:02;6.28;;;1.50;;
18082;SDS011;9168;51.194;6.840;2024-02-14T00:49:29;1.90;;;0.90;;
18082;SDS011;9168;51.194;6.840;2024-02-14T00:51:58;2.08;;;1.30;;
18082;SDS011;9168;51.194;6.840;2024-02-14T00:54:25;2.42;;;1.15;;
18082;SDS011;9168;51.194;6.840;2024-02-14T00:56:51;2.95;;;1.42;;
18082;SDS011;9168;51.194;6.840;2024-02-14T00:59:19;3.13;;;1.55;;
18082;SDS011;9168;51.194;6.840;2024-02-14T01:01:45;3.88;;;1.15;;
18082;SDS011;9168;51.194;6.840;2024-02-14T01:04:12;2.65;;;1.00;;
18082;SDS011;9168;51.194;6.840;2024-02-14T01:06:39;2.45;;;1.10;;
18082;SDS011;9168;51.194;6.840;2024-02-14T01:09:07;3.17;;;1.10;;
18082;SDS011;9168;51.194;6.840;2024-02-14T01:11:34;3.10;;;1.45;;
18082;SDS011;9168;51.194;6.840;2024-02-14T01:14:03;2.85;;;1.48;;
18082;SDS011;9168;51.194;6.840;2024-02-14T01:16:30;5.53;;;1.23;;
18082;SDS011;9168;51.194;6.840;2024-02-14T01:18:57;7.95;;;1.50;;
18082;SDS011;9168;51.194;6.840;2024-02-14T01:21:23;2.75;;;1.30;;
18082;SDS011;9168;51.194;6.840;2024-02-14T01:23:50;3.85;;;1.10;;
18082;SDS011;9168;51.194;6.840;2024-02-14T01:26:19;6.95;;;0.95;;
18082;SDS011;9168;51.194;6.840;2024-02-14T01:28:46;2.58;;;1.17;;
18082;SDS011;9168;51.194;6.840;2024-02-14T01:31:13;2.33;;;1.17;;
18082;SDS011;9168;51.194;6.840;2024-02-14T01:33:40;2.83;;;1.17;;
18082;SDS011;9168;51.194;6.840;2024-02-14T01:36:07;5.30;;;1.33;;
18082;SDS011;9168;51.194;6.840;2024-02-14T01:38:34;2.95;;;1.08;;
18082;SDS011;9168;51.194;6.840;2024-02-14T01:41:01;2.70;;;1.17;;
18082;SDS011;9168;51.194;6.840;2024-02-14T01:43:30;3.78;;;1.52;;
18082;SDS011;9168;51.194;6.840;2024-02-14T01:45:58;4.35;;;1.33;;
18082;SDS011;9168;51.194;6.840;2024-02-14T01:48:31;2.60;;;1.15;;
18082;SDS011;9168;51.194;6.840;2024-02-14T01:50:59;5.93;;;1.10;;
18082;SDS011;9168;51.194;6.840;2024-02-14T01:53:28;3.65;;;0.90;;
18082;SDS011;9168;51.194;6.840;2024-02-14T01:55:56;1.35;;;0.93;;
18082;SDS011;9168;51.194;6.840;2024-02-14T01:58:23;5.47;;;1.20;;
18082;SDS011;9168;51.194;6.840;2024-02-14T02:00:52;2.58;;;1.20;;
18082;SDS011;9168;51.194;6.840;2024-02-14T02:03:22;1.95;;;1.00;;
18082;SDS011;9168;51.194;6.840;2024-02-14T02:05:50;2.72;;;1.00;;
18082;SDS011;9168;51.194;6.840;2024-02-14T02:08:17;1.52;;;0.75;;
18082;SDS011;9168;51.194;6.840;2024-02-14T02:10:44;2.58;;;1.15;;
18082;SDS011;9168;51.194;6.840;2024-02-14T02:13:11;2.05;;;0.90;;
18082;SDS011;9168;51.194;6.840;2024-02-14T02:15:40;3.65;;;1.15;;
18082;SDS011;9168;51.194;6.840;2024-02-14T02:18:11;7.32;;;1.00;;
18082;SDS011;9168;51.194;6.840;2024-02-14T02:20:38;1.05;;;0.80;;
18082;SDS011;9168;51.194;6.840;2024-02-14T02:23:09;3.90;;;0.93;;
18082;SDS011;9168;51.194;6.840;2024-02-14T02:25:39;2.35;;;0.73;;
18082;SDS011;9168;51.194;6.840;2024-02-14T02:28:06;3.72;;;1.00;;
18082;SDS011;9168;51.194;6.840;2024-02-14T02:30:33;2.10;;;1.20;;
18082;SDS011;9168;51.194;6.840;2024-02-14T02:33:01;6.63;;;1.10;;
18082;SDS011;9168;51.194;6.840;2024-02-14T02:35:28;5.07;;;0.88;;
18082;SDS011;9168;51.194;6.840;2024-02-14T02:37:55;6.63;;;1.33;;
18082;SDS011;9168;51.194;6.840;2024-02-14T02:40:24;5.00;;;1.10;;
18082;SDS011;9168;51.194;6.840;2024-02-14T02:42:52;5.75;;;0.95;;
18082;SDS011;9168;51.194;6.840;2024-02-14T02:45:19;3.92;;;1.15;;
18082;SDS011;9168;51.194;6.840;2024-02-14T02:47:46;2.70;;;0.90;;
18082;SDS011;9168;51.194;6.840;2024-02-14T02:50:13;2.35;;;0.95;;
18082;SDS011;9168;51.194;6.840;2024-02-14T02:52:40;2.40;;;1.00;;
18082;SDS011;9168;51.194;6.840;2024-02-14T02:55:07;2.05;;;0.80;;
18082;SDS011;9168;51.194;6.840;2024-02-14T02:57:35;1.90;;;0.70;;
18082;SDS011;9168;51.194;6.840;2024-02-14T03:00:05;5.53;;;0.98;;
18082;SDS011;9168;51.194;6.840;2024-02-14T03:02:34;2.88;;;0.93;;
18082;SDS011;9168;51.194;6.840;2024-02-14T03:05:03;2.90;;;1.08;;
18082;SDS011;9168;51.194;6.840;2024-02-14T03:07:31;4.60;;;0.90;;
18082;SDS011;9168;51.194;6.840;2024-02-14T03:09:58;1.65;;;0.82;;
18082;SDS011;9168;51.194;6.840;2024-02-14T03:12:25;1.17;;;0.70;;
18082;SDS011;9168;51.194;6.840;2024-02-14T03:14:57;2.22;;;0.88;;
18082;SDS011;9168;51.194;6.840;2024-02-14T03:17:24;2.50;;;0.95;;
18082;SDS011;9168;51.194;6.840;2024-02-14T03:19:51;1.67;;;0.50;;
18082;SDS011;9168;51.194;6.840;2024-02-14T03:22:18;1.25;;;0.82;;
18082;SDS011;9168;51.194;6.840;2024-02-14T03:24:45;3.03;;;0.80;;
18082;SDS011;9168;51.194;6.840;2024-02-14T03:27:12;3.28;;;1.20;;
18082;SDS011;9168;51.194;6.840;2024-02-14T03:29:39;2.63;;;1.13;;
18082;SDS011;9168;51.194;6.840;2024-02-14T03:32:07;4.63;;;1.10;;
18082;SDS011;9168;51.194;6.840;2024-02-14T03:34:34;3.58;;;0.90;;
18082;SDS011;9168;51.194;6.840;2024-02-14T03:37:01;2.67;;;1.02;;
18082;SDS011;9168;51.194;6.840;2024-02-14T03:39:29;1.75;;;0.82;;
18082;SDS011;9168;51.194;6.840;2024-02-14T03:41:56;1.92;;;1.00;;
18082;SDS011;9168;51.194;6.840;2024-02-14T03:44:26;2.00;;;0.90;;
18082;SDS011;9168;51.194;6.840;2024-02-14T03:46:53;3.00;;;0.98;;
18082;SDS011;9168;51.194;6.840;2024-02-14T03:49:21;3.83;;;1.02;;
18082;SDS011;9168;51.194;6.840;2024-02-14T03:51:48;3.90;;;1.27;;
18082;SDS011;9168;51.194;6.840;2024-02-14T03:54:18;2.17;;;1.00;;
18082;SDS011;9168;51.194;6.840;2024-02-14T03:56:44;1.92;;;1.10;;
18082;SDS011;9168;51.194;6.840;2024-02-14T03:59:14;2.75;;;0.98;;
18082;SDS011;9168;51.194;6.840;2024-02-14T04:01:46;4.20;;;0.80;;
18082;SDS011;9168;51.194;6.840;2024-02-14T04:04:12;4.43;;;0.90;;
18082;SDS011;9168;51.194;6.840;2024-02-14T04:06:41;3.88;;;1.30;;
18082;SDS011;9168;51.194;6.840;2024-02-14T04:09:10;3.05;;;0.93;;
18082;SDS011;9168;51.194;6.840;2024-02-14T04:11:37;1.83;;;1.08;;
18082;SDS011;9168;51.194;6.840;2024-02-14T04:14:04;1.65;;;1.00;;
18082;SDS011;9168;51.194;6.840;2024-02-14T04:16:31;2.35;;;1.08;;
18082;SDS011;9168;51.194;6.840;2024-02-14T04:18:58;2.50;;;1.33;;
18082;SDS011;9168;51.194;6.840;2024-02-14T04:21:25;2.30;;;1.02;;
18082;SDS011;9168;51.194;6.840;2024-02-14T04:23:53;1.70;;;0.93;;
18082;SDS011;9168;51.194;6.840;2024-02-14T04:26:20;5.30;;;1.60;;
18082;SDS011;9168;51.194;6.840;2024-02-14T04:28:47;1.50;;;0.77;;
18082;SDS011;9168;51.194;6.840;2024-02-14T04:31:14;3.30;;;1.13;;
18082;SDS011;9168;51.194;6.840;2024-02-14T04:33:41;3.08;;;1.17;;
18082;SDS011;9168;51.194;6.840;2024-02-14T04:36:09;4.68;;;1.08;;
18082;SDS011;9168;51.194;6.840;2024-02-14T04:38:36;1.88;;;0.90;;
18082;SDS011;9168;51.194;6.840;2024-02-14T04:41:06;2.03;;;0.90;;
18082;SDS011;9168;51.194;6.840;2024-02-14T04:43:35;4.07;;;0.90;;
18082;SDS011;9168;51.194;6.840;2024-02-14T04:46:02;2.80;;;0.80;;
18082;SDS011;9168;51.194;6.840;2024-02-14T04:48:31;3.47;;;1.23;;
18082;SDS011;9168;51.194;6.840;2024-02-14T04:50:58;1.70;;;0.80;;
18082;SDS011;9168;51.194;6.840;2024-02-14T04:53:25;2.65;;;1.48;;
18082;SDS011;9168;51.194;6.840;2024-02-14T04:55:52;2.55;;;1.08;;
18082;SDS011;9168;51.194;6.840;2024-02-14T04:58:20;2.83;;;1.15;;
18082;SDS011;9168;51.194;6.840;2024-02-14T05:00:47;2.90;;;1.25;;
18082;SDS011;9168;51.194;6.840;2024-02-14T05:03:14;1.23;;;1.08;;
18082;SDS011;9168;51.194;6.840;2024-02-14T05:05:42;3.35;;;1.15;;
18082;SDS011;9168;51.194;6.840;2024-02-14T05:08:09;2.70;;;1.23;;
18082;SDS011;9168;51.194;6.840;2024-02-14T05:10:36;2.20;;;0.88;;
18082;SDS011;9168;51.194;6.840;2024-02-14T05:13:03;1.55;;;0.95;;
18082;SDS011;9168;51.194;6.840;2024-02-14T05:15:32;4.43;;;1.38;;
18082;SDS011;9168;51.194;6.840;2024-02-14T05:18:00;2.85;;;1.33;;
18082;SDS011;9168;51.194;6.840;2024-02-14T05:20:27;2.97;;;1.35;;
18082;SDS011;9168;51.194;6.840;2024-02-14T05:22:53;5.63;;;1.50;;
18082;SDS011;9168;51.194;6.840;2024-02-14T05:25:20;5.05;;;1.40;;
18082;SDS011;9168;51.194;6.840;2024-02-14T05:27:47;1.58;;;1.00;;
18082;SDS011;9168;51.194;6.840;2024-02-14T05:30:14;3.40;;;1.30;;
18082;SDS011;9168;51.194;6.840;2024-02-14T05:32:43;2.90;;;1.25;;
18082;SDS011;9168;51.194;6.840;2024-02-14T05:35:10;2.58;;;1.15;;
18082;SDS011;9168;51.194;6.840;2024-02-14T05:37:37;6.38;;;1.20;;
18082;SDS011;9168;51.194;6.840;2024-02-14T05:40:04;5.55;;;1.27;;
18082;SDS011;9168;51.194;6.840;2024-02-14T05:42:32;1.95;;;1.20;;
18082;SDS011;9168;51.194;6.840;2024-02-14T05:45:00;6.47;;;1.25;;
18082;SDS011;9168;51.194;6.840;2024-02-14T05:47:28;8.50;;;1.45;;
18082;SDS011;9168;51.194;6.840;2024-02-14T05:49:58;4.22;;;1.23;;
18082;SDS011;9168;51.194;6.840;2024-02-14T05:52:26;1.85;;;0.80;;
18082;SDS011;9168;51.194;6.840;2024-02-14T05:54:53;5.35;;;1.17;;
18082;SDS011;9168;51.194;6.840;2024-02-14T05:57:22;2.35;;;1.30;;
18082;SDS011;9168;51.194;6.840;2024-02-14T05:59:50;2.05;;;1.10;;
18082;SDS011;9168;51.194;6.840;2024-02-14T06:02:16;1.95;;;1.33;;
18082;SDS011;9168;51.194;6.840;2024-02-14T06:04:43;2.05;;;0.82;;
18082;SDS011;9168;51.194;6.840;2024-02-14T06:07:12;2.35;;;1.13;;
18082;SDS011;9168;51.194;6.840;2024-02-14T06:09:39;3.65;;;1.30;;
18082;SDS011;9168;51.194;6.840;2024-02-14T06:12:06;2.05;;;1.10;;
18082;SDS011;9168;51.194;6.840;2024-02-14T06:14:33;2.40;;;1.08;;
18082;SDS011;9168;51.194;6.840;2024-02-14T06:17:02;4.40;;;1.42;;
18082;SDS011;9168;51.194;6.840;2024-02-14T06:19:29;6.30;;;1.98;;
18082;SDS011;9168;51.194;6.840;2024-02-14T06:21:57;3.38;;;1.67;;
18082;SDS011;9168;51.194;6.840;2024-02-14T06:24:25;2.53;;;1.55;;
18082;SDS011;9168;51.194;6.840;2024-02-14T06:26:52;1.95;;;1.20;;
18082;SDS011;9168;51.194;6.840;2024-02-14T06:29:19;3.88;;;1.20;;
18082;SDS011;9168;51.194;6.840;2024-02-14T06:31:46;2.30;;;1.23;;
18082;SDS011;9168;51.194;6.840;2024-02-14T06:34:13;5.38;;;1.55;;
18082;SDS011;9168;51.194;6.840;2024-02-14T06:36:40;3.70;;;1.45;;
18082;SDS011;9168;51.194;6.840;2024-02-14T06:39:07;3.72;;;1.30;;
18082;SDS011;9168;51.194;6.840;2024-02-14T06:41:35;4.10;;;1.30;;
18082;SDS011;9168;51.194;6.840;2024-02-14T06:44:02;3.38;;;1.38;;
18082;SDS011;9168;51.194;6.840;2024-02-14T06:46:29;1.52;;;1.00;;
18082;SDS011;9168;51.194;6.840;2024-02-14T06:48:56;3.95;;;1.63;;
18082;SDS011;9168;51.194;6.840;2024-02-14T06:51:23;6.57;;;1.38;;
18082;SDS011;9168;51.194;6.840;2024-02-14T06:53:50;2.67;;;1.50;;
18082;SDS011;9168;51.194;6.840;2024-02-14T06:56:17;3.35;;;1.30;;
18082;SDS011;9168;51.194;6.840;2024-02-14T06:58:45;3.15;;;1.27;;
18082;SDS011;9168;51.194;6.840;2024-02-14T07:01:17;7.65;;;1.40;;
18082;SDS011;9168;51.194;6.840;2024-02-14T07:03:47;5.18;;;1.40;;
18082;SDS011;9168;51.194;6.840;2024-02-14T07:06:13;3.95;;;1.35;;
18082;SDS011;9168;51.194;6.840;2024-02-14T07:08:40;2.42;;;1.27;;
18082;SDS011;9168;51.194;6.840;2024-02-14T07:11:07;1.95;;;1.15;;
18082;SDS011;9168;51.194;6.840;2024-02-14T07:13:34;8.40;;;1.35;;
18082;SDS011;9168;51.194;6.840;2024-02-14T07:16:03;4.53;;;1.27;;
18082;SDS011;9168;51.194;6.840;2024-02-14T07:18:30;3.47;;;1.52;;
18082;SDS011;9168;51.194;6.840;2024-02-14T07:20:57;2.45;;;1.20;;
18082;SDS011;9168;51.194;6.840;2024-02-14T07:23:23;3.47;;;1.35;;
18082;SDS011;9168;51.194;6.840;2024-02-14T07:25:51;6.22;;;1.30;;
18082;SDS011;9168;51.194;6.840;2024-02-14T07:28:18;2.00;;;1.25;;
18082;SDS011;9168;51.194;6.840;2024-02-14T07:30:45;1.45;;;1.00;;
18082;SDS011;9168;51.194;6.840;2024-02-14T07:33:13;2.20;;;1.10;;
18082;SDS011;9168;51.194;6.840;2024-02-14T07:35:40;1.58;;;1.08;;
18082;SDS011;9168;51.194;6.840;2024-02-14T07:38:07;2.95;;;1.08;;
18082;SDS011;9168;51.194;6.840;2024-02-14T07:40:34;3.88;;;1.20;;
18082;SDS011;9168;51.194;6.840;2024-02-14T07:43:02;3.38;;;0.95;;
18082;SDS011;9168;51.194;6.840;2024-02-14T07:45:29;5.45;;;1.50;;
18082;SDS011;9168;51.194;6.840;2024-02-14T07:47:55;2.63;;;1.40;;
18082;SDS011;9168;51.194;6.840;2024-02-14T07:50:24;4.25;;;1.27;;
18082;SDS011;9168;51.194;6.840;2024-02-14T07:52:53;6.70;;;1.50;;
18082;SDS011;9168;51.194;6.840;2024-02-14T07:55:20;3.13;;;1.33;;
18082;SDS011;9168;51.194;6.840;2024-02-14T07:57:47;2.20;;;1.10;;
18082;SDS011;9168;51.194;6.840;2024-02-14T08:00:14;3.05;;;1.20;;
18082;SDS011;9168;51.194;6.840;2024-02-14T08:02:47;1.48;;;1.10;;
18082;SDS011;9168;51.194;6.840;2024-02-14T08:05:14;2.95;;;1.20;;
18082;SDS011;9168;51.194;6.840;2024-02-14T08:07:43;3.47;;;1.20;;
18082;SDS011;9168;51.194;6.840;2024-02-14T08:10:11;2.08;;;0.90;;
18082;SDS011;9168;51.194;6.840;2024-02-14T08:12:38;3.05;;;1.30;;
18082;SDS011;9168;51.194;6.840;2024-02-14T08:15:05;4.07;;;1.17;;
18082;SDS011;9168;51.194;6.840;2024-02-14T08:17:32;4.93;;;1.33;;
18082;SDS011;9168;51.194;6.840;2024-02-14T08:20:00;4.53;;;1.40;;
18082;SDS011;9168;51.194;6.840;2024-02-14T08:22:29;1.77;;;0.90;;
18082;SDS011;9168;51.194;6.840;2024-02-14T08:24:57;2.13;;;1.10;;
18082;SDS011;9168;51.194;6.840;2024-02-14T08:27:24;4.65;;;1.55;;
18082;SDS011;9168;51.194;6.840;2024-02-14T08:29:52;5.97;;;1.42;;
18082;SDS011;9168;51.194;6.840;2024-02-14T08:32:20;6.25;;;1.73;;
18082;SDS011;9168;51.194;6.840;2024-02-14T08:34:47;3.72;;;1.63;;
18082;SDS011;9168;51.194;6.840;2024-02-14T08:37:15;3.67;;;1.75;;
18082;SDS011;9168;51.194;6.840;2024-02-14T08:39:42;3.58;;;1.23;;
18082;SDS011;9168;51.194;6.840;2024-02-14T08:42:10;3.00;;;1.25;;
18082;SDS011;9168;51.194;6.840;2024-02-14T08:44:38;3.67;;;1.65;;
18082;SDS011;9168;51.194;6.840;2024-02-14T08:47:06;6.65;;;1.33;;
18082;SDS011;9168;51.194;6.840;2024-02-14T08:49:34;2.88;;;1.33;;
18082;SDS011;9168;51.194;6.840;2024-02-14T08:52:00;4.53;;;1.45;;
18082;SDS011;9168;51.194;6.840;2024-02-14T08:54:27;4.78;;;1.63;;
18082;SDS011;9168;51.194;6.840;2024-02-14T08:56:54;4.25;;;1.45;;
18082;SDS011;9168;51.194;6.840;2024-02-14T08:59:25;6.00;;;1.65;;
18082;SDS011;9168;51.194;6.840;2024-02-14T09:01:52;4.70;;;1.10;;
18082;SDS011;9168;51.194;6.840;2024-02-14T09:04:19;7.32;;;1.13;;
18082;SDS011;9168;51.194;6.840;2024-02-14T09:06:46;8.77;;;1.15;;
18082;SDS011;9168;51.194;6.840;2024-02-14T09:09:13;6.40;;;1.23;;
18082;SDS011;9168;51.194;6.840;2024-02-14T09:11:40;3.20;;;1.08;;
18082;SDS011;9168;51.194;6.840;2024-02-14T09:14:07;6.47;;;1.40;;
18082;SDS011;9168;51.194;6.840;2024-02-14T09:16:36;4.68;;;1.15;;
18082;SDS011;9168;51.194;6.840;2024-02-14T09:19:04;3.40;;;1.10;;
18082;SDS011;9168;51.194;6.840;2024-02-14T09:21:32;3.00;;;1.05;;
18082;SDS011;9168;51.194;6.840;2024-02-14T09:24:00;3.80;;;1.20;;
18082;SDS011;9168;51.194;6.840;2024-02-14T09:26:28;4.40;;;1.38;;
18082;SDS011;9168;51.194;6.840;2024-02-14T09:28:55;3.03;;;1.30;;
18082;SDS011;9168;51.194;6.840;2024-02-14T09:31:21;6.60;;;1.80;;
18082;SDS011;9168;51.194;6.840;2024-02-14T09:33:50;4.78;;;1.33;;
18082;SDS011;9168;51.194;6.840;2024-02-14T09:36:21;3.30;;;1.10;;
18082;SDS011;9168;51.194;6.840;2024-02-14T09:38:48;3.22;;;1.08;;
18082;SDS011;9168;51.194;6.840;2024-02-14T09:41:15;4.03;;;0.98;;
18082;SDS011;9168;51.194;6.840;2024-02-14T09:43:48;2.67;;;1.15;;
18082;SDS011;9168;51.194;6.840;2024-02-14T09:46:16;3.30;;;1.05;;
18082;SDS011;9168;51.194;6.840;2024-02-14T09:48:43;1.88;;;1.08;;
18082;SDS011;9168;51.194;6.840;2024-02-14T09:51:12;3.65;;;1.27;;
18082;SDS011;9168;51.194;6.840;2024-02-14T09:53:40;4.60;;;1.35;;
18082;SDS011;9168;51.194;6.840;2024-02-14T09:56:09;5.95;;;1.55;;
18082;SDS011;9168;51.194;6.840;2024-02-14T09:58:38;5.00;;;1.33;;
18082;SDS011;9168;51.194;6.840;2024-02-14T10:01:06;3.25;;;1.05;;
18082;SDS011;9168;51.194;6.840;2024-02-14T10:03:33;9.48;;;1.50;;
18082;SDS011;9168;51.194;6.840;2024-02-14T10:06:00;5.45;;;1.08;;
18082;SDS011;9168;51.194;6.840;2024-02-14T10:08:28;2.05;;;1.10;;
18082;SDS011;9168;51.194;6.840;2024-02-14T10:10:56;4.40;;;0.90;;
18082;SDS011;9168;51.194;6.840;2024-02-14T10:13:26;5.13;;;1.02;;
18082;SDS011;9168;51.194;6.840;2024-02-14T10:15:53;2.13;;;0.80;;
18082;SDS011;9168;51.194;6.840;2024-02-14T10:18:21;3.92;;;1.00;;
18082;SDS011;9168;51.194;6.840;2024-02-14T10:20:55;4.03;;;0.88;;
18082;SDS011;9168;51.194;6.840;2024-02-14T10:23:22;4.43;;;1.52;;
18082;SDS011;9168;51.194;6.840;2024-02-14T10:25:52;2.88;;;1.30;;
18082;SDS011;9168;51.194;6.840;2024-02-14T10:28:21;3.15;;;0.70;;
18082;SDS011;9168;51.194;6.840;2024-02-14T10:30:48;1.58;;;0.85;;
18082;SDS011;9168;51.194;6.840;2024-02-14T10:33:15;3.13;;;0.90;;
18082;SDS011;9168;51.194;6.840;2024-02-14T10:35:42;5.55;;;1.55;;
18082;SDS011;9168;51.194;6.840;2024-02-14T10:38:11;4.05;;;0.90;;
18082;SDS011;9168;51.194;6.840;2024-02-14T10:40:38;1.65;;;0.60;;
18082;SDS011;9168;51.194;6.840;2024-02-14T10:43:07;3.88;;;1.10;;
18082;SDS011;9168;51.194;6.840;2024-02-14T10:45:34;2.60;;;0.88;;
18082;SDS011;9168;51.194;6.840;2024-02-14T10:48:02;4.93;;;1.40;;
18082;SDS011;9168;51.194;6.840;2024-02-14T10:50:32;6.25;;;1.33;;
18082;SDS011;9168;51.194;6.840;2024-02-14T10:53:03;6.43;;;1.50;;
18082;SDS011;9168;51.194;6.840;2024-02-14T10:55:31;4.10;;;1.63;;
18082;SDS011;9168;51.194;6.840;2024-02-14T10:58:00;4.65;;;1.05;;
18082;SDS011;9168;51.194;6.840;2024-02-14T11:00:29;4.85;;;1.15;;
18082;SDS011;9168;51.194;6.840;2024-02-14T11:02:57;4.75;;;1.00;;
18082;SDS011;9168;51.194;6.840;2024-02-14T11:05:25;2.70;;;1.08;;
18082;SDS011;9168;51.194;6.840;2024-02-14T11:07:52;6.20;;;1.77;;
18082;SDS011;9168;51.194;6.840;2024-02-14T11:10:20;4.57;;;1.48;;
18082;SDS011;9168;51.194;6.840;2024-02-14T11:12:48;8.13;;;1.27;;
18082;SDS011;9168;51.194;6.840;2024-02-14T11:15:16;4.32;;;1.00;;
18082;SDS011;9168;51.194;6.840;2024-02-14T11:17:45;5.88;;;2.17;;
18082;SDS011;9168;51.194;6.840;2024-02-14T11:20:14;4.57;;;1.23;;
18082;SDS011;9168;51.194;6.840;2024-02-14T11:22:55;7.45;;;1.23;;
18082;SDS011;9168;51.194;6.840;2024-02-14T11:25:23;5.72;;;1.20;;
18082;SDS011;9168;51.194;6.840;2024-02-14T11:27:56;3.13;;;1.30;;
18082;SDS011;9168;51.194;6.840;2024-02-14T11:30:26;5.95;;;1.05;;
18082;SDS011;9168;51.194;6.840;2024-02-14T11:32:57;2.85;;;0.90;;
18082;SDS011;9168;51.194;6.840;2024-02-14T11:35:43;2.35;;;0.77;;
18082;SDS011;9168;51.194;6.840;2024-02-14T11:38:11;3.85;;;0.60;;
18082;SDS011;9168;51.194;6.840;2024-02-14T11:40:38;6.40;;;0.98;;
18082;SDS011;9168;51.194;6.840;2024-02-14T11:43:09;4.57;;;1.00;;
18082;SDS011;9168;51.194;6.840;2024-02-14T11:45:37;4.85;;;0.93;;
18082;SDS011;9168;51.194;6.840;2024-02-14T11:48:08;4.13;;;1.40;;
18082;SDS011;9168;51.194;6.840;2024-02-14T11:50:36;3.13;;;0.90;;
18082;SDS011;9168;51.194;6.840;2024-02-14T11:53:04;2.53;;;0.80;;
18082;SDS011;9168;51.194;6.840;2024-02-14T11:55:34;2.10;;;0.77;;
18082;SDS011;9168;51.194;6.840;2024-02-14T11:58:02;2.30;;;0.95;;
18082;SDS011;9168;51.194;6.840;2024-02-14T12:00:29;4.07;;;1.20;;
18082;SDS011;9168;51.194;6.840;2024-02-14T12:02:57;3.17;;;0.93;;
18082;SDS011;9168;51.194;6.840;2024-02-14T12:05:25;1.15;;;0.80;;
18082;SDS011;9168;51.194;6.840;2024-02-14T12:07:52;1.60;;;0.70;;
18082;SDS011;9168;51.194;6.840;2024-02-14T12:10:22;3.95;;;0.98;;
18082;SDS011;9168;51.194;6.840;2024-02-14T12:12:49;2.95;;;0.77;;
18082;SDS011;9168;51.194;6.840;2024-02-14T12:15:16;7.50;;;1.10;;
18082;SDS011;9168;51.194;6.840;2024-02-14T12:17:44;4.50;;;0.93;;
18082;SDS011;9168;51.194;6.840;2024-02-14T12:20:13;1.45;;;0.80;;
18082;SDS011;9168;51.194;6.840;2024-02-14T12:22:42;4.88;;;1.33;;
18082;SDS011;9168;51.194;6.840;2024-02-14T12:25:09;7.53;;;1.27;;
18082;SDS011;9168;51.194;6.840;2024-02-14T12:27:36;10.32;;;1.67;;
18082;SDS011;9168;51.194;6.840;2024-02-14T12:30:04;10.35;;;1.50;;
18082;SDS011;9168;51.194;6.840;2024-02-14T12:32:35;6.22;;;1.40;;
18082;SDS011;9168;51.194;6.840;2024-02-14T12:35:02;5.70;;;1.30;;
18082;SDS011;9168;51.194;6.840;2024-02-14T12:37:29;2.20;;;0.98;;
18082;SDS011;9168;51.194;6.840;2024-02-14T12:39:58;8.88;;;1.70;;
18082;SDS011;9168;51.194;6.840;2024-02-14T12:42:24;7.32;;;1.17;;
18082;SDS011;9168;51.194;6.840;2024-02-14T12:44:54;4.22;;;1.23;;
18082;SDS011;9168;51.194;6.840;2024-02-14T12:47:21;2.05;;;0.70;;
18082;SDS011;9168;51.194;6.840;2024-02-14T12:49:49;6.30;;;1.00;;
18082;SDS011;9168;51.194;6.840;2024-02-14T12:52:15;5.45;;;1.30;;
18082;SDS011;9168;51.194;6.840;2024-02-14T12:54:43;4.78;;;1.20;;
18082;SDS011;9168;51.194;6.840;2024-02-14T12:57:11;1.33;;;0.70;;
18082;SDS011;9168;51.194;6.840;2024-02-14T12:59:38;2.22;;;0.80;;
18082;SDS011;9168;51.194;6.840;2024-02-14T13:02:06;2.90;;;1.30;;
18082;SDS011;9168;51.194;6.840;2024-02-14T13:04:33;5.38;;;1.00;;
18082;SDS011;9168;51.194;6.840;2024-02-14T13:07:00;3.78;;;0.90;;
18082;SDS011;9168;51.194;6.840;2024-02-14T13:09:28;4.18;;;0.80;;
18082;SDS011;9168;51.194;6.840;2024-02-14T13:11:54;0.98;;;0.63;;
18082;SDS011;9168;51.194;6.840;2024-02-14T13:14:23;3.97;;;0.77;;
18082;SDS011;9168;51.194;6.840;2024-02-14T13:16:50;1.40;;;0.88;;
18082;SDS011;9168;51.194;6.840;2024-02-14T13:19:17;4.85;;;0.80;;
18082;SDS011;9168;51.194;6.840;2024-02-14T13:21:44;4.22;;;0.90;;
18082;SDS011;9168;51.194;6.840;2024-02-14T13:24:11;1.98;;;0.80;;
18082;SDS011;9168;51.194;6.840;2024-02-14T13:26:39;4.53;;;0.90;;
18082;SDS011;9168;51.194;6.840;2024-02-14T13:29:06;1.45;;;0.60;;
18082;SDS011;9168;51.194;6.840;2024-02-14T13:31:34;1.13;;;0.70;;
18082;SDS011;9168;51.194;6.840;2024-02-14T13:34:01;1.52;;;0.65;;
18082;SDS011;9168;51.194;6.840;2024-02-14T13:36:30;4.53;;;1.02;;
18082;SDS011;9168;51.194;6.840;2024-02-14T13:38:57;0.80;;;0.60;;
18082;SDS011;9168;51.194;6.840;2024-02-14T13:41:25;1.48;;;0.63;;
18082;SDS011;9168;51.194;6.840;2024-02-14T13:43:52;2.25;;;0.68;;
18082;SDS011;9168;51.194;6.840;2024-02-14T13:46:19;2.90;;;0.90;;
18082;SDS011;9168;51.194;6.840;2024-02-14T13:48:48;1.27;;;0.75;;
18082;SDS011;9168;51.194;6.840;2024-02-14T13:51:15;1.90;;;0.70;;
18082;SDS011;9168;51.194;6.840;2024-02-14T13:53:42;0.93;;;0.60;;
18082;SDS011;9168;51.194;6.840;2024-02-14T13:56:09;2.13;;;1.05;;
18082;SDS011;9168;51.194;6.840;2024-02-14T13:58:36;1.85;;;0.75;;
18082;SDS011;9168;51.194;6.840;2024-02-14T14:01:04;2.97;;;0.80;;
18082;SDS011;9168;51.194;6.840;2024-02-14T14:03:32;3.60;;;0.75;;
18082;SDS011;9168;51.194;6.840;2024-02-14T14:06:03;1.17;;;0.70;;
18082;SDS011;9168;51.194;6.840;2024-02-14T14:08:33;0.82;;;0.80;;
18082;SDS011;9168;51.194;6.840;2024-02-14T14:11:01;0.75;;;0.40;;
18082;SDS011;9168;51.194;6.840;2024-02-14T14:13:29;0.52;;;0.45;;
18082;SDS011;9168;51.194;6.840;2024-02-14T14:15:58;3.05;;;0.80;;
18082;SDS011;9168;51.194;6.840;2024-02-14T14:18:25;1.20;;;0.50;;
18082;SDS011;9168;51.194;6.840;2024-02-14T14:20:52;3.10;;;0.80;;
18082;SDS011;9168;51.194;6.840;2024-02-14T14:23:20;4.68;;;0.60;;
18082;SDS011;9168;51.194;6.840;2024-02-14T14:25:47;0.73;;;0.50;;
18082;SDS011;9168;51.194;6.840;2024-02-14T14:28:14;1.50;;;0.60;;
18082;SDS011;9168;51.194;6.840;2024-02-14T14:30:42;2.45;;;0.88;;
18082;SDS011;9168;51.194;6.840;2024-02-14T14:33:09;4.53;;;0.60;;
18082;SDS011;9168;51.194;6.840;2024-02-14T14:35:36;2.15;;;0.80;;
18082;SDS011;9168;51.194;6.840;2024-02-14T14:38:04;3.40;;;0.70;;
18082;SDS011;9168;51.194;6.840;2024-02-14T14:40:32;4.25;;;0.70;;
18082;SDS011;9168;51.194;6.840;2024-02-14T14:43:00;1.60;;;0.60;;
18082;SDS011;9168;51.194;6.840;2024-02-14T14:45:27;1.15;;;0.60;;
18082;SDS011;9168;51.194;6.840;2024-02-14T14:47:56;3.78;;;0.60;;
18082;SDS011;9168;51.194;6.840;2024-02-14T14:50:22;3.35;;;0.63;;
18082;SDS011;9168;51.194;6.840;2024-02-14T14:52:50;0.60;;;0.45;;
18082;SDS011;9168;51.194;6.840;2024-02-14T14:55:17;2.67;;;0.60;;
18082;SDS011;9168;51.194;6.840;2024-02-14T14:57:45;0.75;;;0.47;;
18082;SDS011;9168;51.194;6.840;2024-02-14T15:00:12;1.80;;;0.60;;
18082;SDS011;9168;51.194;6.840;2024-02-14T15:02:40;1.17;;;0.70;;